sensor_id;sensor_type;location;lat;lon;timestamp;temperature;humidity
16384;DHT22;8301;51.440;6.610;2023-10-31T00:02:01;10.90;99.90
16384;DHT22;8301;51.440;6.610;2023-10-31T00:04:28;10.90;99.90
16384;DHT22;8301;51.440;6.610;2023-10-31T00:06:57;10.80;99.90
16384;DHT22;8301;51.440;6.610;2023-10-31T00:09:26;10.80;99.90
16384;DHT22;8301;51.440;6.610;2023-10-31T00:11:53;10.80;99.90
16384;DHT22;8301;51.440;6.610;2023-10-31T00:14:19;10.90;99.90
16384;DHT22;8301;51.440;6.610;2023-10-31T00:16:46;10.80;99.90
16384;DHT22;8301;51.440;6.610;2023-10-31T00:19:14;10.80;99.90
16384;DHT22;8301;51.440;6.610;2023-10-31T00:21:41;10.70;99.90
16384;DHT22;8301;51.440;6.610;2023-10-31T00:24:12;10.70;99.90
16384;DHT22;8301;51.440;6.610;2023-10-31T00:26:36;10.70;99.90
16384;DHT22;8301;51.440;6.610;2023-10-31T00:29:03;10.70;99.90
16384;DHT22;8301;51.440;6.610;2023-10-31T00:31:30;10.60;99.90
16384;DHT22;8301;51.440;6.610;2023-10-31T00:33:56;10.60;99.90
16384;DHT22;8301;51.440;6.610;2023-10-31T00:36:26;10.60;99.90
16384;DHT22;8301;51.440;6.610;2023-10-31T00:39:01;10.60;99.90
16384;DHT22;8301;51.440;6.610;2023-10-31T00:41:27;10.50;99.90
16384;DHT22;8301;51.440;6.610;2023-10-31T00:43:54;10.40;99.90
16384;DHT22;8301;51.440;6.610;2023-10-31T00:46:21;10.40;99.90
16384;DHT22;8301;51.440;6.610;2023-10-31T00:48:48;10.40;99.90
16384;DHT22;8301;51.440;6.610;2023-10-31T00:51:15;10.30;99.90
16384;DHT22;8301;51.440;6.610;2023-10-31T00:53:42;10.30;99.90
16384;DHT22;8301;51.440;6.610;2023-10-31T00:56:08;10.40;99.90
16384;DHT22;8301;51.440;6.610;2023-10-31T00:58:35;10.30;99.90
16384;DHT22;8301;51.440;6.610;2023-10-31T01:01:02;10.40;99.90
16384;DHT22;8301;51.440;6.610;2023-10-31T01:03:29;10.40;99.90
16384;DHT22;8301;51.440;6.610;2023-10-31T01:05:56;10.40;99.90
16384;DHT22;8301;51.440;6.610;2023-10-31T01:08:22;10.30;99.90
16384;DHT22;8301;51.440;6.610;2023-10-31T01:10:49;10.40;99.90
16384;DHT22;8301;51.440;6.610;2023-10-31T01:13:16;10.40;99.90
16384;DHT22;8301;51.440;6.610;2023-10-31T01:15:46;10.40;99.90
16384;DHT22;8301;51.440;6.610;2023-10-31T01:18:11;10.30;99.90
16384;DHT22;8301;51.440;6.610;2023-10-31T01:20:38;10.30;99.90
16384;DHT22;8301;51.440;6.610;2023-10-31T01:23:05;10.40;99.90
16384;DHT22;8301;51.440;6.610;2023-10-31T01:25:32;10.40;99.90
16384;DHT22;8301;51.440;6.610;2023-10-31T01:27:59;10.40;99.90
16384;DHT22;8301;51.440;6.610;2023-10-31T01:30:31;10.30;99.90
16384;DHT22;8301;51.440;6.610;2023-10-31T01:32:54;10.30;99.90
16384;DHT22;8301;51.440;6.610;2023-10-31T01:35:21;10.30;99.90
16384;DHT22;8301;51.440;6.610;2023-10-31T01:37:47;10.30;99.90
16384;DHT22;8301;51.440;6.610;2023-10-31T01:40:14;10.30;99.90
16384;DHT22;8301;51.440;6.610;2023-10-31T01:42:41;10.30;99.90
16384;DHT22;8301;51.440;6.610;2023-10-31T01:45:08;10.30;99.90
16384;DHT22;8301;51.440;6.610;2023-10-31T01:47:36;10.30;99.90
16384;DHT22;8301;51.440;6.610;2023-10-31T01:50:03;10.30;99.90
16384;DHT22;8301;51.440;6.610;2023-10-31T01:52:32;10.30;99.90
16384;DHT22;8301;51.440;6.610;2023-10-31T01:54:59;10.30;99.90
16384;DHT22;8301;51.440;6.610;2023-10-31T01:57:27;10.30;99.90
16384;DHT22;8301;51.440;6.610;2023-10-31T01:59:54;10.30;99.90
16384;DHT22;8301;51.440;6.610;2023-10-31T02:02:21;10.30;99.90
16384;DHT22;8301;51.440;6.610;2023-10-31T02:04:50;10.30;99.90
16384;DHT22;8301;51.440;6.610;2023-10-31T02:07:17;10.30;99.90
16384;DHT22;8301;51.440;6.610;2023-10-31T02:09:44;10.30;99.90
16384;DHT22;8301;51.440;6.610;2023-10-31T02:12:11;10.30;99.90
16384;DHT22;8301;51.440;6.610;2023-10-31T02:14:39;10.30;99.90
16384;DHT22;8301;51.440;6.610;2023-10-31T02:17:06;10.20;99.90
16384;DHT22;8301;51.440;6.610;2023-10-31T02:19:33;10.20;99.90
16384;DHT22;8301;51.440;6.610;2023-10-31T02:22:01;10.20;99.90
16384;DHT22;8301;51.440;6.610;2023-10-31T02:24:28;10.20;99.90
16384;DHT22;8301;51.440;6.610;2023-10-31T02:27:00;10.20;99.90
16384;DHT22;8301;51.440;6.610;2023-10-31T02:29:23;10.20;99.90
16384;DHT22;8301;51.440;6.610;2023-10-31T02:31:50;10.20;99.90
16384;DHT22;8301;51.440;6.610;2023-10-31T02:34:19;10.20;99.90
16384;DHT22;8301;51.440;6.610;2023-10-31T02:36:46;10.20;99.90
16384;DHT22;8301;51.440;6.610;2023-10-31T02:39:12;10.20;99.90
16384;DHT22;8301;51.440;6.610;2023-10-31T02:41:39;10.20;99.90
16384;DHT22;8301;51.440;6.610;2023-10-31T02:44:06;10.20;99.90
16384;DHT22;8301;51.440;6.610;2023-10-31T02:46:37;10.20;99.90
16384;DHT22;8301;51.440;6.610;2023-10-31T02:49:01;10.20;99.90
16384;DHT22;8301;51.440;6.610;2023-10-31T02:51:28;10.20;99.90
16384;DHT22;8301;51.440;6.610;2023-10-31T02:53:55;10.20;99.90
16384;DHT22;8301;51.440;6.610;2023-10-31T02:56:22;10.20;99.90
16384;DHT22;8301;51.440;6.610;2023-10-31T02:58:49;10.20;99.90
16384;DHT22;8301;51.440;6.610;2023-10-31T03:01:16;10.20;99.90
16384;DHT22;8301;51.440;6.610;2023-10-31T03:03:43;10.20;99.90
16384;DHT22;8301;51.440;6.610;2023-10-31T03:06:10;10.20;99.90
16384;DHT22;8301;51.440;6.610;2023-10-31T03:08:37;10.20;99.90
16384;DHT22;8301;51.440;6.610;2023-10-31T03:11:07;10.30;99.90
16384;DHT22;8301;51.440;6.610;2023-10-31T03:13:34;10.30;99.90
16384;DHT22;8301;51.440;6.610;2023-10-31T03:16:00;10.30;99.90
16384;DHT22;8301;51.440;6.610;2023-10-31T03:18:27;10.30;99.90
16384;DHT22;8301;51.440;6.610;2023-10-31T03:20:56;10.30;99.90
16384;DHT22;8301;51.440;6.610;2023-10-31T03:23:23;10.30;99.90
16384;DHT22;8301;51.440;6.610;2023-10-31T03:25:51;10.30;99.90
16384;DHT22;8301;51.440;6.610;2023-10-31T03:28:19;10.20;99.90
16384;DHT22;8301;51.440;6.610;2023-10-31T03:30:47;10.20;99.90
16384;DHT22;8301;51.440;6.610;2023-10-31T03:33:14;10.30;99.90
16384;DHT22;8301;51.440;6.610;2023-10-31T03:35:44;10.20;99.90
16384;DHT22;8301;51.440;6.610;2023-10-31T03:38:18;10.20;99.90
16384;DHT22;8301;51.440;6.610;2023-10-31T03:40:58;10.20;99.90
16384;DHT22;8301;51.440;6.610;2023-10-31T03:43:26;10.20;99.90
16384;DHT22;8301;51.440;6.610;2023-10-31T03:45:58;10.20;99.90
16384;DHT22;8301;51.440;6.610;2023-10-31T03:48:41;10.20;99.90
16384;DHT22;8301;51.440;6.610;2023-10-31T03:51:11;10.20;99.90
16384;DHT22;8301;51.440;6.610;2023-10-31T03:56:22;10.20;99.90
16384;DHT22;8301;51.440;6.610;2023-10-31T03:58:51;10.20;99.90
16384;DHT22;8301;51.440;6.610;2023-10-31T04:01:19;10.20;99.90
16384;DHT22;8301;51.440;6.610;2023-10-31T04:03:46;10.20;99.90
16384;DHT22;8301;51.440;6.610;2023-10-31T04:06:13;10.20;99.90
16384;DHT22;8301;51.440;6.610;2023-10-31T04:08:44;10.20;99.90
16384;DHT22;8301;51.440;6.610;2023-10-31T04:11:12;10.20;99.90
16384;DHT22;8301;51.440;6.610;2023-10-31T04:13:36;10.20;99.90
16384;DHT22;8301;51.440;6.610;2023-10-31T04:16:03;10.20;99.90
16384;DHT22;8301;51.440;6.610;2023-10-31T04:18:33;10.20;99.90
16384;DHT22;8301;51.440;6.610;2023-10-31T04:21:00;10.20;99.90
16384;DHT22;8301;51.440;6.610;2023-10-31T04:23:27;10.20;99.90
16384;DHT22;8301;51.440;6.610;2023-10-31T04:25:54;10.20;99.90
16384;DHT22;8301;51.440;6.610;2023-10-31T04:28:21;10.20;99.90
16384;DHT22;8301;51.440;6.610;2023-10-31T04:30:47;10.20;99.90
16384;DHT22;8301;51.440;6.610;2023-10-31T04:33:14;10.20;99.90
16384;DHT22;8301;51.440;6.610;2023-10-31T04:35:53;10.20;99.90
16384;DHT22;8301;51.440;6.610;2023-10-31T04:38:20;10.30;99.90
16384;DHT22;8301;51.440;6.610;2023-10-31T04:40:47;10.20;99.90
16384;DHT22;8301;51.440;6.610;2023-10-31T04:43:14;10.20;99.90
16384;DHT22;8301;51.440;6.610;2023-10-31T04:45:40;10.20;99.90
16384;DHT22;8301;51.440;6.610;2023-10-31T04:48:09;10.20;99.90
16384;DHT22;8301;51.440;6.610;2023-10-31T04:50:36;10.20;99.90
16384;DHT22;8301;51.440;6.610;2023-10-31T04:53:07;10.20;99.90
16384;DHT22;8301;51.440;6.610;2023-10-31T04:55:39;10.20;99.90
16384;DHT22;8301;51.440;6.610;2023-10-31T04:58:05;10.20;99.90
16384;DHT22;8301;51.440;6.610;2023-10-31T05:00:34;10.20;99.90
16384;DHT22;8301;51.440;6.610;2023-10-31T05:03:01;10.20;99.90
16384;DHT22;8301;51.440;6.610;2023-10-31T05:05:29;10.30;99.90
16384;DHT22;8301;51.440;6.610;2023-10-31T05:07:58;10.30;99.90
16384;DHT22;8301;51.440;6.610;2023-10-31T05:10:26;10.30;99.90
16384;DHT22;8301;51.440;6.610;2023-10-31T05:12:55;10.30;99.90
16384;DHT22;8301;51.440;6.610;2023-10-31T05:15:23;10.30;99.90
16384;DHT22;8301;51.440;6.610;2023-10-31T05:17:52;10.30;99.90
16384;DHT22;8301;51.440;6.610;2023-10-31T05:20:19;10.30;99.90
16384;DHT22;8301;51.440;6.610;2023-10-31T05:22:46;10.30;99.90
16384;DHT22;8301;51.440;6.610;2023-10-31T05:25:13;10.20;99.90
16384;DHT22;8301;51.440;6.610;2023-10-31T05:27:40;10.20;99.90
16384;DHT22;8301;51.440;6.610;2023-10-31T05:30:07;10.30;99.90
16384;DHT22;8301;51.440;6.610;2023-10-31T05:32:34;10.20;99.90
16384;DHT22;8301;51.440;6.610;2023-10-31T05:35:00;10.20;99.90
16384;DHT22;8301;51.440;6.610;2023-10-31T05:37:28;10.20;99.90
16384;DHT22;8301;51.440;6.610;2023-10-31T05:39:55;10.20;99.90
16384;DHT22;8301;51.440;6.610;2023-10-31T05:42:21;10.20;99.90
16384;DHT22;8301;51.440;6.610;2023-10-31T05:44:49;10.20;99.90
16384;DHT22;8301;51.440;6.610;2023-10-31T05:47:15;10.20;99.90
16384;DHT22;8301;51.440;6.610;2023-10-31T05:49:43;10.20;99.90
16384;DHT22;8301;51.440;6.610;2023-10-31T05:52:10;10.20;99.90
16384;DHT22;8301;51.440;6.610;2023-10-31T05:54:36;10.20;99.90
16384;DHT22;8301;51.440;6.610;2023-10-31T05:57:03;10.20;99.90
16384;DHT22;8301;51.440;6.610;2023-10-31T05:59:30;10.30;99.90
16384;DHT22;8301;51.440;6.610;2023-10-31T06:01:59;10.30;99.90
16384;DHT22;8301;51.440;6.610;2023-10-31T06:04:26;10.20;99.90
16384;DHT22;8301;51.440;6.610;2023-10-31T06:06:53;10.20;99.90
16384;DHT22;8301;51.440;6.610;2023-10-31T06:09:19;10.20;99.90
16384;DHT22;8301;51.440;6.610;2023-10-31T06:11:46;10.20;99.90
16384;DHT22;8301;51.440;6.610;2023-10-31T06:14:13;10.10;99.90
16384;DHT22;8301;51.440;6.610;2023-10-31T06:16:40;10.20;99.90
16384;DHT22;8301;51.440;6.610;2023-10-31T06:19:07;10.20;99.90
16384;DHT22;8301;51.440;6.610;2023-10-31T06:21:34;10.20;99.90
16384;DHT22;8301;51.440;6.610;2023-10-31T06:24:02;10.20;99.90
16384;DHT22;8301;51.440;6.610;2023-10-31T06:26:28;10.20;99.90
16384;DHT22;8301;51.440;6.610;2023-10-31T06:28:55;10.20;99.90
16384;DHT22;8301;51.440;6.610;2023-10-31T06:31:22;10.30;99.90
16384;DHT22;8301;51.440;6.610;2023-10-31T06:33:49;10.20;99.90
16384;DHT22;8301;51.440;6.610;2023-10-31T06:36:16;10.20;99.90
16384;DHT22;8301;51.440;6.610;2023-10-31T06:38:44;10.20;99.90
16384;DHT22;8301;51.440;6.610;2023-10-31T06:41:11;10.20;99.90
16384;DHT22;8301;51.440;6.610;2023-10-31T06:43:38;10.20;99.90
16384;DHT22;8301;51.440;6.610;2023-10-31T06:46:05;10.20;99.90
16384;DHT22;8301;51.440;6.610;2023-10-31T06:51:04;10.20;99.90
16384;DHT22;8301;51.440;6.610;2023-10-31T06:53:36;10.30;99.90
16384;DHT22;8301;51.440;6.610;2023-10-31T06:56:04;10.30;99.90
16384;DHT22;8301;51.440;6.610;2023-10-31T06:58:40;10.30;99.90
16384;DHT22;8301;51.440;6.610;2023-10-31T07:06:47;10.30;99.90
16384;DHT22;8301;51.440;6.610;2023-10-31T07:09:14;10.30;99.90
16384;DHT22;8301;51.440;6.610;2023-10-31T07:11:41;10.40;99.90
16384;DHT22;8301;51.440;6.610;2023-10-31T07:14:07;10.40;99.90
16384;DHT22;8301;51.440;6.610;2023-10-31T07:16:36;10.40;99.90
16384;DHT22;8301;51.440;6.610;2023-10-31T07:19:03;10.40;99.90
16384;DHT22;8301;51.440;6.610;2023-10-31T07:21:29;10.40;99.90
16384;DHT22;8301;51.440;6.610;2023-10-31T07:26:35;10.40;99.90
16384;DHT22;8301;51.440;6.610;2023-10-31T07:29:01;10.40;99.90
16384;DHT22;8301;51.440;6.610;2023-10-31T07:31:28;10.40;99.90
16384;DHT22;8301;51.440;6.610;2023-10-31T07:34:04;10.40;99.90
16384;DHT22;8301;51.440;6.610;2023-10-31T07:42:03;10.40;99.90
16384;DHT22;8301;51.440;6.610;2023-10-31T08:05:33;10.40;99.90
16384;DHT22;8301;51.440;6.610;2023-10-31T08:10:36;10.40;99.90
16384;DHT22;8301;51.440;6.610;2023-10-31T08:13:04;10.40;99.90
16384;DHT22;8301;51.440;6.610;2023-10-31T08:18:12;10.40;99.90
16384;DHT22;8301;51.440;6.610;2023-10-31T08:20:42;10.50;99.90
16384;DHT22;8301;51.440;6.610;2023-10-31T08:23:22;10.50;99.90
16384;DHT22;8301;51.440;6.610;2023-10-31T08:31:02;10.70;99.90
16384;DHT22;8301;51.440;6.610;2023-10-31T08:33:32;10.80;99.90
16384;DHT22;8301;51.440;6.610;2023-10-31T08:36:08;10.90;99.90
16384;DHT22;8301;51.440;6.610;2023-10-31T08:38:35;10.80;99.90
16384;DHT22;8301;51.440;6.610;2023-10-31T08:41:04;10.80;99.90
16384;DHT22;8301;51.440;6.610;2023-10-31T10:19:15;11.40;99.90
16384;DHT22;8301;51.440;6.610;2023-10-31T10:22:05;11.50;99.90
16384;DHT22;8301;51.440;6.610;2023-10-31T11:32:31;13.00;99.90
16384;DHT22;8301;51.440;6.610;2023-10-31T11:37:34;13.20;99.90
16384;DHT22;8301;51.440;6.610;2023-10-31T13:15:20;13.60;99.90
16384;DHT22;8301;51.440;6.610;2023-10-31T14:56:36;12.70;99.90
16384;DHT22;8301;51.440;6.610;2023-10-31T14:59:03;12.70;99.90
16384;DHT22;8301;51.440;6.610;2023-10-31T18:58:49;11.00;99.90
16384;DHT22;8301;51.440;6.610;2023-10-31T19:01:16;11.00;99.90
16384;DHT22;8301;51.440;6.610;2023-10-31T19:03:44;11.00;99.90
16384;DHT22;8301;51.440;6.610;2023-10-31T19:06:10;11.10;99.90
16384;DHT22;8301;51.440;6.610;2023-10-31T19:08:37;11.10;99.90
16384;DHT22;8301;51.440;6.610;2023-10-31T19:11:04;11.10;99.90
16384;DHT22;8301;51.440;6.610;2023-10-31T19:13:31;11.10;99.90
16384;DHT22;8301;51.440;6.610;2023-10-31T19:16:03;11.10;99.90
16384;DHT22;8301;51.440;6.610;2023-10-31T19:18:31;11.10;99.90
16384;DHT22;8301;51.440;6.610;2023-10-31T19:20:57;11.10;99.90
16384;DHT22;8301;51.440;6.610;2023-10-31T19:23:26;11.10;99.90
16384;DHT22;8301;51.440;6.610;2023-10-31T19:25:58;11.10;99.90
16384;DHT22;8301;51.440;6.610;2023-10-31T19:28:26;11.10;99.90
16384;DHT22;8301;51.440;6.610;2023-10-31T19:30:55;11.10;99.90
16384;DHT22;8301;51.440;6.610;2023-10-31T19:33:22;11.10;99.90
16384;DHT22;8301;51.440;6.610;2023-10-31T19:35:51;11.10;99.90
16384;DHT22;8301;51.440;6.610;2023-10-31T19:38:17;11.10;99.90
16384;DHT22;8301;51.440;6.610;2023-10-31T19:40:47;11.10;99.90
16384;DHT22;8301;51.440;6.610;2023-10-31T19:43:16;11.20;99.90
16384;DHT22;8301;51.440;6.610;2023-10-31T19:45:43;11.20;99.90
16384;DHT22;8301;51.440;6.610;2023-10-31T19:48:18;11.20;99.90
16384;DHT22;8301;51.440;6.610;2023-10-31T19:50:57;11.20;99.90
16384;DHT22;8301;51.440;6.610;2023-10-31T19:53:24;11.20;99.90
16384;DHT22;8301;51.440;6.610;2023-10-31T19:55:56;11.10;99.90
16384;DHT22;8301;51.440;6.610;2023-10-31T19:58:29;11.10;99.90
16384;DHT22;8301;51.440;6.610;2023-10-31T20:00:56;11.10;99.90
16384;DHT22;8301;51.440;6.610;2023-10-31T20:03:24;11.10;99.90
16384;DHT22;8301;51.440;6.610;2023-10-31T20:05:54;11.10;99.90
16384;DHT22;8301;51.440;6.610;2023-10-31T20:08:26;11.10;99.90
16384;DHT22;8301;51.440;6.610;2023-10-31T20:11:02;11.10;99.90
16384;DHT22;8301;51.440;6.610;2023-10-31T20:13:28;11.10;99.90
16384;DHT22;8301;51.440;6.610;2023-10-31T20:15:59;11.10;99.90
16384;DHT22;8301;51.440;6.610;2023-10-31T20:18:27;11.10;99.90
16384;DHT22;8301;51.440;6.610;2023-10-31T20:20:55;11.10;99.90
16384;DHT22;8301;51.440;6.610;2023-10-31T20:23:22;11.10;99.90
16384;DHT22;8301;51.440;6.610;2023-10-31T20:25:53;11.10;99.90
16384;DHT22;8301;51.440;6.610;2023-10-31T20:28:20;11.10;99.90
16384;DHT22;8301;51.440;6.610;2023-10-31T20:30:49;11.00;99.90
16384;DHT22;8301;51.440;6.610;2023-10-31T20:33:17;11.00;99.90
16384;DHT22;8301;51.440;6.610;2023-10-31T20:36:00;11.00;99.90
16384;DHT22;8301;51.440;6.610;2023-10-31T20:38:30;11.00;99.90
16384;DHT22;8301;51.440;6.610;2023-10-31T20:40:59;11.00;99.90
16384;DHT22;8301;51.440;6.610;2023-10-31T20:43:32;11.00;99.90
16384;DHT22;8301;51.440;6.610;2023-10-31T21:01:33;11.00;99.90
16384;DHT22;8301;51.440;6.610;2023-10-31T21:06:35;11.00;99.90
16384;DHT22;8301;51.440;6.610;2023-10-31T21:09:03;11.00;99.90
16384;DHT22;8301;51.440;6.610;2023-10-31T21:11:30;11.00;99.90
16384;DHT22;8301;51.440;6.610;2023-10-31T21:13:57;11.00;99.90
16384;DHT22;8301;51.440;6.610;2023-10-31T21:16:24;11.00;99.90
16384;DHT22;8301;51.440;6.610;2023-10-31T21:18:51;10.90;99.90
16384;DHT22;8301;51.440;6.610;2023-10-31T21:23:58;10.80;99.90
16384;DHT22;8301;51.440;6.610;2023-10-31T21:26:28;10.80;99.90
16384;DHT22;8301;51.440;6.610;2023-10-31T21:28:56;10.80;99.90
16384;DHT22;8301;51.440;6.610;2023-10-31T21:31:23;10.80;99.90
16384;DHT22;8301;51.440;6.610;2023-10-31T21:33:50;10.70;99.90
16384;DHT22;8301;51.440;6.610;2023-10-31T21:36:19;10.70;99.90
16384;DHT22;8301;51.440;6.610;2023-10-31T21:38:45;10.70;99.90
16384;DHT22;8301;51.440;6.610;2023-10-31T21:41:12;10.70;99.90
16384;DHT22;8301;51.440;6.610;2023-10-31T21:43:40;10.60;99.90
16384;DHT22;8301;51.440;6.610;2023-10-31T21:46:07;10.70;99.90
16384;DHT22;8301;51.440;6.610;2023-10-31T21:48:34;10.70;99.90
16384;DHT22;8301;51.440;6.610;2023-10-31T21:51:01;10.70;99.90
16384;DHT22;8301;51.440;6.610;2023-10-31T21:53:28;10.80;99.90
16384;DHT22;8301;51.440;6.610;2023-10-31T21:55:55;10.80;99.90
16384;DHT22;8301;51.440;6.610;2023-10-31T21:58:21;10.80;99.90
16384;DHT22;8301;51.440;6.610;2023-10-31T22:00:49;10.80;99.90
16384;DHT22;8301;51.440;6.610;2023-10-31T22:03:16;10.90;99.90
16384;DHT22;8301;51.440;6.610;2023-10-31T22:05:43;10.80;99.90
16384;DHT22;8301;51.440;6.610;2023-10-31T22:08:09;10.90;99.90
16384;DHT22;8301;51.440;6.610;2023-10-31T22:10:36;10.90;99.90
16384;DHT22;8301;51.440;6.610;2023-10-31T22:13:03;10.90;99.90
16384;DHT22;8301;51.440;6.610;2023-10-31T22:15:30;10.90;99.90
16384;DHT22;8301;51.440;6.610;2023-10-31T22:17:57;11.00;99.90
16384;DHT22;8301;51.440;6.610;2023-10-31T22:23:00;11.00;99.90
16384;DHT22;8301;51.440;6.610;2023-10-31T22:25:30;11.00;99.90
16384;DHT22;8301;51.440;6.610;2023-10-31T22:27:57;11.00;99.90
16384;DHT22;8301;51.440;6.610;2023-10-31T22:30:24;11.00;99.90
16384;DHT22;8301;51.440;6.610;2023-10-31T22:32:51;11.10;99.90
16384;DHT22;8301;51.440;6.610;2023-10-31T22:35:20;11.10;99.90
16384;DHT22;8301;51.440;6.610;2023-10-31T22:37:47;11.10;99.90
16384;DHT22;8301;51.440;6.610;2023-10-31T22:40:15;11.10;99.90
16384;DHT22;8301;51.440;6.610;2023-10-31T22:42:43;11.10;99.90
16384;DHT22;8301;51.440;6.610;2023-10-31T22:45:13;11.10;99.90
16384;DHT22;8301;51.440;6.610;2023-10-31T22:47:39;11.10;99.90
16384;DHT22;8301;51.440;6.610;2023-10-31T22:50:14;11.20;99.90
16384;DHT22;8301;51.440;6.610;2023-10-31T22:52:38;11.20;99.90
16384;DHT22;8301;51.440;6.610;2023-10-31T22:55:05;11.20;99.90
16384;DHT22;8301;51.440;6.610;2023-10-31T22:57:37;11.30;99.90
16384;DHT22;8301;51.440;6.610;2023-10-31T23:00:07;11.30;99.90
16384;DHT22;8301;51.440;6.610;2023-10-31T23:02:37;11.40;99.90
16384;DHT22;8301;51.440;6.610;2023-10-31T23:05:05;11.30;99.90
16384;DHT22;8301;51.440;6.610;2023-10-31T23:07:33;11.40;99.90
16384;DHT22;8301;51.440;6.610;2023-10-31T23:15:15;11.40;99.90
16384;DHT22;8301;51.440;6.610;2023-10-31T23:17:44;11.40;99.90
16384;DHT22;8301;51.440;6.610;2023-10-31T23:20:13;11.40;99.90
16384;DHT22;8301;51.440;6.610;2023-10-31T23:38:02;11.40;99.90
16384;DHT22;8301;51.440;6.610;2023-10-31T23:40:29;11.40;99.90
16384;DHT22;8301;51.440;6.610;2023-10-31T23:53:19;11.30;99.90
16384;DHT22;8301;51.440;6.610;2023-10-31T23:58:21;11.30;99.90
